Cyrus, Minnesota
Current Conditions -  °F | °C
As of 8:13 AM on Thursday 18 Dec 2014 (Local Time) from KMOX Reporting Station
Scattered Clouds Scattered Clouds  
Wind Chill: -2°   Ceiling: Unl
Heat Index:   Visibility: 7mi
Dew Point:   Wind: 5mph
Humidity: 92%   Direction: 120°ESE
Pressure: 30.25"   Gusts: NA
Location:  45.61°N, 95.74°W
Report Text: KMOX 181413Z AUTO 12004KT 7SM SCT120 M14/M15 A3025 RMK AO2
Loading
Personal Weather Stations






























Interactive Weather Map New forecast layout! Learn more

10-Day Weather Forecast

Advertisements
Track Severe Weather on mobile